Pineville, North Carolina
Current Conditions -  °F | °C
As of 12:52 PM on Monday 24 Nov 2014 (Local Time) from KCLT Reporting Station
Broken Clouds Broken Clouds  
Wind Chill: 71°   Ceiling: 2400
Heat Index: 71°   Visibility: 10mi
Dew Point: 57°   Wind: 10mph
Humidity: 61%   Direction: 220°SW
Pressure: 29.78"   Gusts: 20mph
Location:  35.08°N, 80.89°W
Report Text: KCLT 241752Z 22009G17KT 10SM BKN024 BKN031 22/14 A2978 RMK AO2 SLP080 T02170139 10217 20156 58012
Loading
Personal Weather Stations






























Interactive Weather Map New forecast layout! Learn more

10-Day Weather Forecast

Advertisements
Track Severe Weather on mobile